Etusivu
METAR-TAF:

METAR-TAF

Lentoasemat :

Kajaanin lentoasema

Kajaani, Suomi

Leveyspiiri: 64-17N, Pituuspiiri: 027-41E, korkeus merenpinnasta: 143 m

Tämänhetkinen sää

Tämä raportti tehtiin 36 minuuttia sitten, kello 03.50 UTC
Tuuli 6 kn pohjoisesta, vaihdellen pohjoisen/luoteen ja koillisen välillä
Lämpötila -5°C
Kosteus 68%
Ilmanpaine 1004 hPa
Näkyvyys 10 km tai enemmän
ei pilviä alle 1500 m:ssä eikä cumulonimbus-pilviä

METAR: EFKI 260350Z 01006KT 340V040 CAVOK M05/M10 Q1004

Aika: 06:26 (04:26 UTC)

Sääennuste

Tämä raportti tehtiin 1 tunti ja 57 minuuttia sitten, kello 02.29 UTC
Ennuste voimassa 26. päivästä klo 03 UTC - 26. päivään klo 12 UTC
Tuuli 8 kn pohjoisesta
Näkyvyys 10 km tai enemmän
ei pilviä alle 1500 m:ssä eikä cumulonimbus-pilviä
Ajoittain
26. päivästä klo 09 UTC - 26. päivään klo 12 UTC
Tuuli 10 kn pohjoisen/luoteesta puuskistuen 20 kn:hen

TAF: EFKI 260229Z 2603/2612 35008KT CAVOK TEMPO 2609/2612 34010G20KT

Säähavainnot ja -ennusteet yli 4000 lentoasemalta (METAR- ja TAF-raportit).

Käytössä olevat sääasemat on merkitty karttaan keltaisilla ja punaisilla pisteillä.

Aseta hiiri pisteen päälle nähdäksesi sääaseman nimen.

Klikkaa sitten nähdäksesi säähavainnot ja -ennusteet.

Kartan vaihtaminen: klikkaa mustalla rastilla varustettuja vihreitä pisteitä, niin voit zoomata sisään; viivalla varustettua vihreää pistettä, niin voit zoomata ulos tai vihreitä nuolia, niin pääset viereisille kartoille.


METAR-TAF: